createdAt,value
2022-10-18T00:00:59.973Z,65.88
2022-10-18T00:04:41.580Z,65.86
2022-10-18T00:07:48.117Z,65.82
2022-10-18T00:10:54.025Z,65.60
2022-10-18T00:14:03.850Z,65.34
2022-10-18T00:17:10.121Z,65.15
2022-10-18T00:20:19.791Z,65.01
2022-10-18T00:23:25.341Z,64.67
2022-10-18T00:26:33.333Z,64.51
2022-10-18T00:29:38.985Z,64.52
2022-10-18T00:32:45.830Z,64.22
2022-10-18T00:35:54.519Z,64.10
2022-10-18T00:39:03.049Z,64.00
2022-10-18T00:42:09.125Z,64.04
2022-10-18T00:45:22.462Z,64.03
2022-10-18T00:48:28.225Z,64.02
2022-10-18T00:51:41.461Z,63.95
2022-10-18T00:54:49.557Z,63.78
2022-10-18T00:57:56.817Z,63.77
2022-10-18T01:01:02.729Z,63.84
2022-10-18T01:04:09.398Z,64.01
2022-10-18T01:07:31.314Z,63.78
2022-10-18T01:10:45.982Z,63.83
2022-10-18T01:14:06.080Z,63.54
2022-10-18T01:17:20.252Z,63.57
2022-10-18T01:20:57.528Z,63.60
2022-10-18T01:24:48.741Z,63.59
2022-10-18T01:28:01.066Z,63.60
2022-10-18T01:31:15.422Z,63.58
2022-10-18T01:34:23.068Z,63.57
2022-10-18T01:37:32.490Z,63.39
2022-10-18T01:40:39.551Z,63.20
2022-10-18T01:43:48.524Z,63.12
2022-10-18T01:46:59.983Z,62.97
2022-10-18T01:50:10.010Z,62.93
2022-10-18T01:53:26.353Z,62.78
2022-10-18T01:56:40.102Z,63.06
2022-10-18T01:59:55.970Z,63.03
2022-10-18T02:03:09.871Z,62.76
2022-10-18T02:06:24.789Z,62.79
2022-10-18T02:09:39.766Z,62.75
2022-10-18T02:12:48.360Z,62.78
2022-10-18T02:16:00.721Z,62.80
2022-10-18T02:19:17.565Z,62.79
2022-10-18T02:22:27.033Z,62.87
2022-10-18T02:25:34.841Z,63.10
2022-10-18T02:28:41.834Z,63.09
2022-10-18T02:31:49.621Z,63.09
2022-10-18T02:35:04.095Z,62.97
2022-10-18T02:38:11.225Z,62.98
2022-10-18T02:41:26.065Z,62.83
2022-10-18T02:44:31.650Z,62.91
2022-10-18T02:47:38.436Z,63.00
2022-10-18T02:50:46.825Z,63.21
2022-10-18T02:53:53.286Z,63.10
2022-10-18T02:56:59.065Z,63.08
2022-10-18T03:00:07.371Z,63.14
2022-10-18T03:03:12.956Z,63.17
2022-10-18T03:06:22.414Z,63.12
2022-10-18T03:09:28.117Z,63.22
2022-10-18T03:12:34.562Z,63.27
2022-10-18T03:15:40.363Z,63.13
2022-10-18T03:18:46.840Z,63.34
2022-10-18T03:21:55.268Z,63.30
2022-10-18T03:25:03.312Z,63.31
2022-10-18T03:28:09.199Z,63.14
2022-10-18T03:31:15.585Z,63.30
2022-10-18T03:34:21.317Z,63.19
2022-10-18T03:37:30.575Z,63.28
2022-10-18T03:40:36.202Z,63.36
2022-10-18T03:43:42.904Z,63.37
2022-10-18T03:46:48.432Z,63.50
2022-10-18T03:49:57.207Z,63.56
2022-10-18T03:53:06.116Z,63.49
2022-10-18T03:56:12.588Z,63.67
2022-10-18T03:59:18.749Z,63.57
2022-10-18T04:02:25.177Z,63.56
2022-10-18T04:05:31.644Z,63.71
2022-10-18T04:08:40.951Z,63.73
2022-10-18T04:11:46.739Z,63.62
2022-10-18T04:14:55.391Z,63.65
2022-10-18T04:18:03.335Z,63.89
2022-10-18T04:21:10.086Z,63.74
2022-10-18T04:24:19.713Z,63.91
2022-10-18T04:27:26.649Z,63.84
2022-10-18T04:30:32.200Z,63.96
2022-10-18T04:33:38.758Z,64.08
2022-10-18T04:36:44.506Z,64.06
2022-10-18T04:39:53.931Z,64.10
2022-10-18T04:42:59.867Z,63.95
2022-10-18T04:46:07.828Z,64.00
2022-10-18T04:49:13.502Z,63.99
2022-10-18T04:52:20.272Z,63.86
2022-10-18T04:55:28.741Z,63.93
2022-10-18T04:58:35.813Z,63.86
2022-10-18T05:01:41.716Z,63.93
2022-10-18T05:04:48.197Z,64.06
2022-10-18T05:07:53.962Z,64.07
2022-10-18T05:11:03.290Z,64.05
2022-10-18T05:14:10.328Z,63.97
2022-10-18T05:17:16.879Z,64.02
2022-10-18T05:20:22.446Z,64.01
2022-10-18T05:23:28.974Z,64.25
2022-10-18T05:26:37.416Z,64.29
2022-10-18T05:29:43.863Z,64.23
2022-10-18T05:32:49.438Z,64.40
2022-10-18T05:35:55.850Z,64.62
2022-10-18T05:39:05.011Z,64.65
2022-10-18T05:42:14.690Z,64.69
2022-10-18T05:45:20.794Z,64.42
2022-10-18T05:48:27.449Z,64.33
2022-10-18T05:51:32.976Z,64.32
2022-10-18T05:54:39.594Z,64.46
2022-10-18T05:57:52.406Z,64.45
2022-10-18T06:01:03.572Z,64.38
2022-10-18T06:04:10.334Z,64.42
2022-10-18T06:07:16.797Z,64.21
2022-10-18T06:10:22.429Z,64.10
2022-10-18T06:13:33.713Z,64.02
2022-10-18T06:16:39.464Z,64.11
2022-10-18T06:19:46.467Z,64.00
2022-10-18T06:22:55.183Z,63.82
2022-10-18T06:26:03.050Z,63.78
2022-10-18T06:29:11.555Z,63.72
2022-10-18T06:32:20.244Z,63.33
2022-10-18T06:35:25.820Z,63.11
2022-10-18T06:38:33.259Z,62.99
2022-10-18T06:41:38.863Z,63.03
2022-10-18T06:45:01.233Z,62.54
2022-10-18T06:48:07.935Z,62.38
2022-10-18T06:51:15.415Z,62.28
2022-10-18T06:54:21.003Z,61.91
2022-10-18T06:57:27.536Z,61.84
2022-10-18T07:00:35.890Z,61.32
2022-10-18T07:03:42.905Z,61.17
2022-10-18T07:06:48.450Z,61.27
2022-10-18T07:09:54.919Z,61.18
2022-10-18T07:13:20.089Z,60.61
2022-10-18T07:16:30.279Z,60.58
2022-10-18T07:19:35.835Z,60.59
2022-10-18T07:22:42.244Z,60.63
2022-10-18T07:25:47.789Z,60.17
2022-10-18T07:28:58.092Z,60.08
2022-10-18T07:32:06.655Z,59.42
2022-10-18T07:35:13.238Z,58.95
2022-10-18T07:38:18.894Z,58.26
2022-10-18T07:41:25.637Z,58.78
2022-10-18T07:44:31.519Z,58.33
2022-10-18T07:47:41.153Z,57.92
2022-10-18T07:50:47.025Z,58.36
2022-10-18T07:53:53.628Z,57.82
2022-10-18T07:56:59.174Z,57.14
2022-10-18T08:00:06.812Z,57.68
2022-10-18T08:03:19.843Z,57.76
2022-10-18T08:06:26.486Z,57.25
2022-10-18T08:09:32.083Z,57.39
2022-10-18T08:12:38.533Z,57.84
2022-10-18T08:15:44.116Z,57.90
2022-10-18T08:18:53.711Z,57.10
2022-10-18T08:28:53.980Z,56.50
2022-10-18T08:32:10.776Z,56.23
2022-10-18T08:35:20.087Z,55.27
2022-10-18T08:38:25.777Z,56.09
2022-10-18T08:41:57.605Z,54.73
2022-10-18T08:45:12.589Z,56.15
2022-10-18T08:48:32.148Z,55.31
2022-10-18T08:51:45.577Z,56.66
2022-10-18T08:55:03.387Z,55.88
2022-10-18T08:58:20.071Z,55.10
2022-10-18T09:01:35.514Z,54.56
2022-10-18T09:04:51.497Z,53.78
2022-10-18T09:08:34.063Z,54.37
2022-10-18T09:11:50.462Z,54.19
2022-10-18T09:15:12.205Z,54.32
2022-10-18T09:18:32.795Z,54.12
2022-10-18T09:21:50.505Z,53.78
2022-10-18T09:25:09.214Z,52.32
2022-10-18T09:28:27.310Z,52.93
2022-10-18T09:31:45.702Z,53.49
2022-10-18T09:34:56.487Z,52.80
2022-10-18T09:38:07.683Z,52.90
2022-10-18T09:41:21.371Z,53.09
2022-10-18T09:44:30.482Z,53.21
2022-10-18T09:47:42.162Z,53.95
2022-10-18T09:50:53.870Z,52.34
2022-10-18T09:54:12.375Z,52.66
2022-10-18T09:57:28.629Z,51.10
2022-10-18T10:00:42.249Z,52.58
2022-10-18T10:03:48.178Z,51.02
2022-10-18T10:06:55.689Z,52.17
2022-10-18T10:10:03.604Z,51.71
2022-10-18T10:13:22.541Z,50.35
2022-10-18T10:16:30.177Z,51.50
2022-10-18T10:19:40.828Z,51.34
2022-10-18T10:22:49.528Z,50.48
2022-10-18T10:25:58.008Z,52.24
2022-10-18T10:29:13.219Z,51.51
2022-10-18T10:32:28.910Z,51.58
2022-10-18T10:35:54.053Z,51.17
2022-10-18T10:39:13.962Z,50.77
2022-10-18T10:42:19.768Z,49.99
2022-10-18T10:45:31.237Z,49.58
2022-10-18T10:48:48.443Z,48.08
2022-10-18T10:52:08.463Z,49.36
2022-10-18T10:55:35.473Z,48.02
2022-10-18T10:58:43.715Z,48.12
2022-10-18T11:01:53.323Z,48.86
2022-10-18T11:05:18.668Z,47.73
2022-10-18T11:08:27.773Z,47.48
2022-10-18T11:11:38.137Z,48.21
2022-10-18T11:14:48.942Z,47.77
2022-10-18T11:18:08.194Z,47.78
2022-10-18T11:21:18.108Z,46.43
2022-10-18T11:24:26.211Z,44.76
2022-10-18T11:27:38.207Z,45.03
2022-10-18T11:30:59.071Z,46.31
2022-10-18T11:34:21.930Z,46.92
2022-10-18T11:37:43.826Z,46.64
2022-10-18T11:41:07.477Z,44.50
2022-10-18T11:44:26.569Z,45.28
2022-10-18T11:47:41.027Z,45.31
2022-10-18T11:50:59.033Z,46.15
2022-10-18T11:54:25.843Z,46.41
2022-10-18T11:57:53.845Z,44.95
2022-10-18T12:01:06.315Z,46.51
2022-10-18T12:04:18.050Z,47.14
2022-10-18T12:07:31.625Z,46.34
2022-10-18T12:10:53.027Z,45.62
2022-10-18T12:14:17.210Z,45.99
2022-10-18T12:17:42.710Z,45.38
2022-10-18T12:20:52.651Z,45.71
2022-10-18T12:24:06.336Z,46.35
2022-10-18T12:27:16.499Z,46.22
2022-10-18T12:30:32.081Z,45.71
2022-10-18T12:33:41.783Z,45.78
2022-10-18T12:37:15.468Z,46.46
2022-10-18T12:40:28.951Z,46.66
2022-10-18T12:43:39.499Z,46.30
2022-10-18T12:46:50.569Z,46.57
2022-10-18T12:50:02.889Z,47.01
2022-10-18T12:53:20.912Z,45.13
2022-10-18T12:56:42.777Z,46.42
2022-10-18T12:59:48.478Z,46.77
2022-10-18T13:03:43.113Z,46.17
2022-10-18T13:07:22.058Z,45.60
2022-10-18T13:10:38.999Z,46.91
2022-10-18T13:14:06.865Z,46.19
2022-10-18T13:17:32.000Z,46.25
2022-10-18T13:20:47.047Z,46.90
2022-10-18T13:24:12.359Z,46.95
2022-10-18T13:27:35.817Z,46.56
2022-10-18T13:30:51.503Z,47.03
2022-10-18T13:33:57.250Z,47.06
2022-10-18T13:37:09.066Z,47.03
2022-10-18T13:40:25.221Z,47.19
2022-10-18T13:44:23.656Z,46.92
2022-10-18T13:47:37.735Z,46.80
2022-10-18T13:50:46.252Z,47.05
2022-10-18T13:54:06.833Z,47.08
2022-10-18T13:57:35.507Z,47.72
2022-10-18T14:00:57.910Z,47.39
2022-10-18T14:04:40.954Z,47.61
2022-10-18T14:07:49.311Z,48.22
2022-10-18T14:11:06.500Z,48.20
2022-10-18T14:14:19.700Z,47.98
2022-10-18T14:17:35.045Z,48.09
2022-10-18T14:21:01.436Z,48.21
2022-10-18T14:24:22.163Z,48.14
2022-10-18T14:27:33.677Z,48.46
2022-10-18T14:30:41.601Z,48.82
2022-10-18T14:33:53.729Z,48.57
2022-10-18T14:37:03.102Z,48.93
2022-10-18T14:40:09.479Z,49.15
2022-10-18T14:43:22.656Z,49.22
2022-10-18T14:46:31.243Z,49.34
2022-10-18T14:49:46.722Z,49.55
2022-10-18T14:52:52.916Z,49.50
2022-10-18T14:56:04.317Z,49.46
2022-10-18T14:59:21.611Z,49.71
2022-10-18T15:02:29.550Z,49.59
2022-10-18T15:05:35.234Z,49.75
2022-10-18T15:08:44.122Z,49.52
2022-10-18T15:11:50.618Z,49.87
2022-10-18T15:15:00.500Z,49.82
2022-10-18T15:18:08.580Z,50.06
2022-10-18T15:21:25.031Z,50.24
2022-10-18T15:24:36.397Z,50.43
2022-10-18T15:27:45.411Z,50.58
2022-10-18T15:30:54.061Z,50.68
2022-10-18T15:34:12.896Z,50.74
2022-10-18T15:37:23.282Z,50.84
2022-10-18T15:40:36.816Z,51.04
2022-10-18T15:43:42.468Z,51.16
2022-10-18T15:46:53.165Z,51.29
2022-10-18T15:50:06.975Z,51.45
2022-10-18T15:53:47.515Z,51.65
2022-10-18T15:56:53.243Z,51.66
2022-10-18T16:00:03.808Z,51.92
2022-10-18T16:03:24.087Z,51.77
2022-10-18T16:06:30.860Z,51.96
2022-10-18T16:09:36.529Z,51.98
2022-10-18T16:12:43.500Z,52.37
2022-10-18T16:15:49.305Z,52.18
2022-10-18T16:18:59.435Z,52.65
2022-10-18T16:22:07.224Z,52.58
2022-10-18T16:25:13.996Z,52.71
2022-10-18T16:28:21.399Z,52.55
2022-10-18T16:31:30.221Z,53.11
2022-10-18T16:34:38.847Z,53.15
2022-10-18T16:37:45.336Z,53.14
2022-10-18T16:40:51.683Z,53.40
2022-10-18T16:43:58.219Z,53.52
2022-10-18T16:47:04.082Z,53.70
2022-10-18T16:50:17.311Z,53.64
2022-10-18T16:53:23.990Z,53.67
2022-10-18T16:56:33.429Z,53.73
2022-10-18T16:59:39.092Z,53.92
2022-10-18T17:02:45.820Z,53.86
2022-10-18T17:05:54.650Z,54.20
2022-10-18T17:09:01.220Z,54.01
2022-10-18T17:12:08.695Z,54.31
2022-10-18T17:15:16.026Z,54.22
2022-10-18T17:18:26.540Z,54.58
2022-10-18T17:21:36.649Z,54.01
2022-10-18T17:24:42.290Z,54.67
2022-10-18T17:27:49.571Z,54.40
2022-10-18T17:30:55.170Z,54.38
2022-10-18T17:34:03.872Z,54.56
2022-10-18T17:37:13.790Z,54.70
2022-10-18T17:40:20.625Z,54.34
2022-10-18T17:43:26.725Z,54.70
2022-10-18T17:46:36.881Z,54.70
2022-10-18T17:49:44.856Z,54.89
2022-10-18T17:52:54.215Z,55.51
2022-10-18T17:56:03.671Z,55.26
2022-10-18T17:59:10.204Z,56.06
2022-10-18T18:02:15.815Z,56.54
2022-10-18T18:05:22.284Z,56.81
2022-10-18T18:08:30.999Z,57.22
2022-10-18T18:11:38.614Z,57.57
2022-10-18T18:14:44.196Z,57.73
2022-10-18T18:17:57.201Z,58.38
2022-10-18T18:21:03.430Z,59.18
2022-10-18T18:24:17.928Z,59.57
2022-10-18T18:27:23.627Z,60.19
2022-10-18T18:30:30.558Z,60.40
2022-10-18T18:33:36.631Z,61.31
2022-10-18T18:36:43.526Z,61.20
2022-10-18T18:39:51.975Z,61.94
2022-10-18T18:43:07.133Z,62.46
2022-10-18T18:46:24.691Z,62.85
2022-10-18T18:49:31.664Z,63.61
2022-10-18T18:52:37.317Z,63.43
2022-10-18T18:55:46.606Z,64.03
2022-10-18T18:58:52.489Z,66.19
2022-10-18T19:01:58.983Z,68.62
2022-10-18T19:05:06.307Z,70.25
2022-10-18T19:08:12.826Z,71.61
2022-10-18T19:11:23.922Z,72.71
2022-10-18T19:14:31.285Z,73.05
2022-10-18T19:17:37.289Z,73.85
2022-10-18T19:20:43.801Z,74.90
2022-10-18T19:23:50.426Z,75.87
2022-10-18T19:27:03.373Z,77.17
2022-10-18T19:30:12.259Z,77.32
2022-10-18T19:33:35.568Z,77.71
2022-10-18T19:36:50.083Z,78.33
2022-10-18T19:39:56.866Z,78.36
2022-10-18T19:43:06.528Z,78.97
2022-10-18T19:46:12.993Z,79.38
2022-10-18T19:49:19.601Z,79.87
2022-10-18T19:52:26.055Z,80.25
2022-10-18T19:55:31.657Z,80.38
2022-10-18T19:58:41.116Z,80.34
2022-10-18T20:01:47.474Z,80.67
2022-10-18T20:04:54.456Z,81.04
2022-10-18T20:08:00.349Z,81.51
2022-10-18T20:11:10.595Z,81.69
2022-10-18T20:14:19.300Z,81.95
2022-10-18T20:17:25.736Z,82.27
2022-10-18T20:20:48.996Z,82.42
2022-10-18T20:23:56.093Z,82.48
2022-10-18T20:27:03.305Z,82.89
2022-10-18T20:30:13.662Z,83.66
2022-10-18T20:33:19.235Z,83.88
2022-10-18T20:36:26.123Z,84.31
2022-10-18T20:39:33.680Z,84.65
2022-10-18T20:42:40.211Z,84.66
2022-10-18T20:45:48.835Z,85.02
2022-10-18T20:48:56.229Z,84.85
2022-10-18T20:52:03.315Z,85.21
2022-10-18T20:55:10.724Z,85.19
2022-10-18T20:58:16.385Z,84.74
2022-10-18T21:01:27.435Z,85.12
2022-10-18T21:04:33.208Z,84.96
2022-10-18T21:07:39.739Z,85.06
2022-10-18T21:10:45.305Z,85.20
2022-10-18T21:13:55.527Z,84.89
2022-10-18T21:17:04.213Z,84.65
2022-10-18T21:20:12.212Z,84.45
2022-10-18T21:23:17.936Z,84.14
2022-10-18T21:26:26.179Z,83.85
2022-10-18T21:29:32.474Z,83.75
2022-10-18T21:32:41.653Z,83.51
2022-10-18T21:35:47.234Z,82.97
2022-10-18T21:38:54.694Z,82.83
2022-10-18T21:42:00.334Z,83.03
2022-10-18T21:45:09.615Z,82.54
2022-10-18T21:48:18.181Z,82.92
2022-10-18T21:51:27.759Z,83.02
2022-10-18T21:54:34.492Z,83.04
2022-10-18T21:57:41.041Z,83.17
2022-10-18T22:00:46.735Z,83.08
2022-10-18T22:03:57.975Z,82.90
2022-10-18T22:07:03.530Z,83.25
2022-10-18T22:10:11.240Z,83.16
2022-10-18T22:13:16.818Z,83.08
2022-10-18T22:16:23.280Z,83.18
2022-10-18T22:19:34.757Z,83.22
2022-10-18T22:22:41.219Z,83.11
2022-10-18T22:25:47.072Z,82.98
2022-10-18T22:28:58.691Z,82.91
2022-10-18T22:32:06.082Z,82.96
2022-10-18T22:35:15.379Z,82.90
2022-10-18T22:38:21.271Z,82.97
2022-10-18T22:41:27.742Z,83.01
2022-10-18T22:44:34.361Z,83.13
2022-10-18T22:47:40.907Z,83.41
2022-10-18T22:50:49.300Z,83.41
2022-10-18T22:53:56.399Z,83.57
2022-10-18T22:57:06.181Z,83.47
2022-10-18T23:00:15.244Z,83.80
2022-10-18T23:03:22.061Z,83.73
2022-10-18T23:06:33.334Z,84.10
2022-10-18T23:12:50.293Z,83.67
2022-10-18T23:15:56.455Z,83.38
2022-10-18T23:19:03.108Z,83.23
2022-10-18T23:22:11.436Z,83.25
2022-10-18T23:25:18.133Z,83.55
2022-10-18T23:28:24.027Z,83.62
2022-10-18T23:31:32.536Z,83.73
2022-10-18T23:34:38.123Z,84.14
2022-10-18T23:37:47.465Z,84.19
2022-10-18T23:40:53.015Z,84.00
2022-10-18T23:43:59.521Z,83.94
2022-10-18T23:47:06.577Z,83.98
2022-10-18T23:50:13.525Z,83.96
2022-10-18T23:53:22.406Z,83.97
2022-10-18T23:56:28.797Z,84.12
2022-10-18T23:59:34.711Z,84.37
